METAR Data
IDs: Format: Raw Decoded Include TAF

Data at: 1750 UTC 06 Jul 2020

KSZY 061735Z AUTO 12003KT 10SM CLR 30/22 A2999 RMK A01
KSZY 061715Z AUTO 04004KT 10SM CLR 31/23 A2999 RMK A01
KSZY 061655Z AUTO 05004KT 10SM CLR 29/24 A3000 RMK A01
KSZY 061635Z AUTO 00000KT 10SM CLR 28/22 A3000 RMK A01
KSZY 061615Z AUTO 11005KT 10SM CLR 28/23 A2999 RMK A01
KSZY 061555Z AUTO 12004KT 10SM CLR 27/23 A2999 RMK A01
KSZY 061535Z AUTO VRB03KT 10SM CLR 26/22 A3000 RMK A01
KSZY 061515Z AUTO 07005KT 10SM CLR 25/22 A3000 RMK A01
KSZY 061455Z AUTO 03004KT 10SM CLR 24/22 A3000 RMK A01
KSZY 061435Z AUTO 04004KT 10SM CLR 24/21 A3000 RMK A01
KSZY 061415Z AUTO 04004KT 10SM CLR 24/21 A3000 RMK A01
KSZY 061355Z AUTO 02005KT 10SM CLR 24/21 A3000 RMK A01
KSZY 061335Z AUTO 04004KT 10SM CLR 23/21 A3000 RMK A01
KSZY 061315Z AUTO 05004KT 10SM CLR 23/21 A3000 RMK A01
KSZY 061255Z AUTO 04005KT 10SM CLR 23/21 A2999 RMK A01
KSZY 061235Z AUTO 03004KT 10SM CLR 22/21 A2999 RMK A01
KSZY 061215Z AUTO 00000KT 10SM CLR 22/21 A2998 RMK A01
KSZY 061155Z AUTO 04003KT 10SM CLR 22/21 A2997 RMK A01
KSZY 061135Z AUTO 00000KT 10SM CLR 22/20 A2997 RMK A01
KSZY 061115Z AUTO 00000KT 10SM CLR 22/21 A2997 RMK A01
KSZY 061055Z AUTO 00000KT 10SM FEW100 22/21 A2997 RMK A01
KSZY 061035Z AUTO 00000KT 10SM CLR 22/21 A2996 RMK A01
KSZY 061015Z AUTO 06003KT 10SM FEW120 22/21 A2996 RMK A01
KSZY 060955Z AUTO 00000KT 10SM SCT120 22/21 A2995 RMK A01
KSZY 060935Z AUTO 04004KT 10SM FEW036 SCT044 SCT090 22/21 A2994 RMK A01
KSZY 060915Z AUTO 03003KT 10SM FEW036 SCT043 OVC120 22/21 A2994 RMK A01
KSZY 060855Z AUTO 00000KT 10SM SCT120 22/21 A2994 RMK A01
KSZY 060835Z AUTO 02004KT 10SM CLR 22/21 A2992 RMK A01
KSZY 060815Z AUTO 00000KT 10SM CLR 22/21 A2992 RMK A01
KSZY 060755Z AUTO 02004KT 10SM FEW120 22/21 A2992 RMK A01
KSZY 060735Z AUTO 01003KT 10SM SCT120 22/21 A2992 RMK A01
KSZY 060715Z AUTO 00000KT 10SM CLR 23/21 A2992 RMK A01
KSZY 060655Z AUTO 00000KT 10SM CLR 23/21 A2992 RMK A01
KSZY 060635Z AUTO 00000KT 10SM CLR 22/22 A2992 RMK A01
KSZY 060615Z AUTO 00000KT 10SM CLR 22/22 A2993 RMK A01
KSZY 060555Z AUTO 07005KT 10SM CLR 22/21 A2993 RMK A01
KSZY 060535Z AUTO 36003KT 10SM CLR 22/22 A2992 RMK A01
KSZY 060515Z AUTO 00000KT 10SM CLR 23/22 A2993 RMK A01
KSZY 060455Z AUTO 00000KT 10SM CLR 23/22 A2993 RMK A01
KSZY 060435Z AUTO 00000KT 10SM CLR 23/22 A2993 RMK A01
KSZY 060415Z AUTO 00000KT 10SM CLR 23/22 A2993 RMK A01
KSZY 060355Z AUTO VRB03KT 10SM CLR 24/22 A2993 RMK A01
KSZY 060335Z AUTO 15005KT 10SM CLR 24/22 A2994 RMK A01
KSZY 060315Z AUTO 13006G11KT 10SM SCT120 24/22 A2995 RMK A01
KSZY 060255Z AUTO VRB05KT 10SM BKN120 24/22 A2995 RMK A01
KSZY 060235Z AUTO 00000KT 10SM FEW070 BKN100 24/22 A2995 RMK A01
KSZY 060215Z AUTO 00000KT 10SM FEW065 FEW080 BKN100 24/22 A2994 RMK A01
KSZY 060155Z AUTO 07006KT 10SM FEW100 24/22 A2995 RMK A01
KSZY 060135Z AUTO 00000KT 10SM CLR 24/22 A2993 RMK A01
KSZY 060115Z AUTO 00000KT 10SM CLR 24/22 A2993 RMK A01
KSZY 060055Z AUTO 10003KT 10SM FEW110 24/23 A2993 RMK A01
KSZY 060035Z AUTO 00000KT 10SM CLR 24/23 A2993 RMK A01
KSZY 060015Z AUTO 06004KT 10SM CLR 25/23 A2992 RMK A01
KSZY 052355Z AUTO 24004KT 10SM CLR 25/22 A2991 RMK A01
KSZY 052335Z AUTO 00000KT 10SM CLR 25/22 A2990 RMK A01
KSZY 052315Z AUTO 24007KT 10SM FEW070 24/22 A2990 RMK A01
KSZY 052255Z AUTO 16004KT 10SM FEW042 FEW055 FEW070 25/21 A2990 RMK A01
KSZY 052235Z AUTO 12008G15KT 090V160 10SM FEW055 FEW070 FEW095 26/20 A2990 RMK A01
KSZY 052215Z AUTO 10008KT 070V140 10SM BKN095 29/23 A2990 RMK A01
KSZY 052155Z AUTO 04006KT 10SM SCT100 31/22 A2990 RMK A01
KSZY 052135Z AUTO 35005KT 10SM CLR 30/22 A2989 RMK A01
KSZY 052115Z AUTO VRB06KT 10SM CLR 30/22 A2988 RMK A01
KSZY 052055Z AUTO 36006G11KT 10SM CLR 31/22 A2989 RMK A01
KSZY 052035Z AUTO VRB06G13KT 10SM SCT070 30/22 A2988 RMK A01
KSZY 052015Z AUTO 36005KT 10SM FEW044 FEW050 32/23 A2989 RMK A01
KSZY 051955Z AUTO 00000KT 10SM CLR 32/24 A2990 RMK A01
KSZY 051935Z AUTO 27004KT 10SM CLR 31/24 A2990 RMK A01
KSZY 051915Z AUTO 29004KT 10SM FEW043 SCT070 SCT080 31/23 A2991 RMK A01
KSZY 051855Z AUTO 00000KT 10SM FEW043 SCT070 SCT080 32/22 A2991 RMK A01
KSZY 051835Z AUTO VRB04KT 10SM CLR 32/23 A2992 RMK A01
KSZY 051815Z AUTO 00000KT 10SM CLR 32/22 A2993 RMK A01
KSZY 051755Z AUTO 22005KT 10SM CLR 32/22 A2994 RMK A01
KSZY 051735Z AUTO 28004KT 10SM FEW040 31/23 A2994 RMK A01
KSZY 051715Z AUTO 23004KT 10SM FEW039 32/24 A2995 RMK A01
KSZY 051655Z AUTO 23004KT 10SM SCT039 31/23 A2995 RMK A01
KSZY 051635Z AUTO 00000KT 10SM CLR 31/23 A2995 RMK A01
KSZY 051615Z AUTO 22004KT 10SM CLR 31/23 A2995 RMK A01
KSZY 051555Z AUTO 00000KT 10SM CLR 30/24 A2995 RMK A01
KSZY 051535Z AUTO VRB04KT 10SM CLR 29/24 A2996 RMK A01
KSZY 051515Z AUTO 00000KT 10SM CLR 29/24 A2996 RMK A01
KSZY 051455Z AUTO 00000KT 10SM CLR 29/24 A2995 RMK A01
KSZY 051435Z AUTO 00000KT 10SM CLR 28/23 A2995 RMK A01
KSZY 051415Z AUTO 00000KT 10SM CLR 27/23 A2995 RMK A01
KSZY 051355Z AUTO 00000KT 10SM CLR 26/23 A2995 RMK A01
KSZY 051335Z AUTO 00000KT 10SM CLR 26/23 A2996 RMK A01
KSZY 051315Z AUTO 00000KT 10SM CLR 25/23 A2996 RMK A01
KSZY 051255Z AUTO VRB04KT 10SM CLR 24/22 A2995 RMK A01
KSZY 051235Z AUTO 00000KT 10SM CLR 24/22 A2995 RMK A01
KSZY 051215Z AUTO 00000KT 10SM CLR 24/22 A2994 RMK A01
KSZY 051155Z AUTO 00000KT 10SM CLR 24/22 A2993 RMK A01
KSZY 051135Z AUTO 00000KT 8SM CLR 23/22 A2993 RMK A01
KSZY 051115Z AUTO 00000KT 7SM CLR 22/22 A2993 RMK A01
KSZY 051055Z AUTO 00000KT 5SM BR CLR 22/21 A2992 RMK A01
KSZY 051035Z AUTO 00000KT 6SM BR FEW055 22/22 A2992 RMK A01
KSZY 051015Z AUTO 16003KT 6SM BR CLR 22/22 A2991 RMK A01
KSZY 050955Z AUTO 00000KT 8SM CLR 23/22 A2991 RMK A01
KSZY 050935Z AUTO 00000KT 6SM BR CLR 22/21 A2990 RMK A01
KSZY 050915Z AUTO 00000KT 6SM BR CLR 22/21 A2989 RMK A01
KSZY 050855Z AUTO 00000KT 9SM CLR 22/21 A2989 RMK A01
KSZY 050835Z AUTO 00000KT 7SM CLR 22/21 A2989 RMK A01
KSZY 050815Z AUTO 00000KT 10SM FEW055 22/21 A2989 RMK A01
KSZY 050755Z AUTO 00000KT 7SM FEW055 21/21 A2989 RMK A01
KSZY 050735Z AUTO 00000KT 6SM BR FEW060 22/21 A2989 RMK A01
KSZY 050715Z AUTO 00000KT 7SM CLR 22/21 A2989 RMK A01
KSZY 050655Z AUTO 00000KT 9SM CLR 22/21 A2990 RMK A01
KSZY 050635Z AUTO 00000KT 7SM CLR 22/21 A2990 RMK A01
KSZY 050615Z AUTO 00000KT 6SM BR CLR 22/21 A2991 RMK A01
KSZY 050555Z AUTO 00000KT 9SM CLR 22/21 A2991 RMK A01